createdAt,value
2018-09-04T00:00:05.079Z,76.27
2018-09-04T00:02:32.755Z,76.17
2018-09-04T00:05:00.455Z,76.28
2018-09-04T00:07:28.056Z,75.96
2018-09-04T00:09:55.765Z,76.15
2018-09-04T00:12:23.398Z,75.96
2018-09-04T00:14:51.046Z,75.76
2018-09-04T00:17:18.729Z,75.92
2018-09-04T00:19:46.331Z,75.86
2018-09-04T00:22:13.992Z,75.87
2018-09-04T00:24:41.629Z,75.81
2018-09-04T00:27:09.242Z,75.56
2018-09-04T00:29:36.807Z,75.75
2018-09-04T00:32:04.471Z,75.61
2018-09-04T00:34:32.188Z,75.97
2018-09-04T00:36:59.719Z,75.61
2018-09-04T00:39:27.369Z,75.87
2018-09-04T00:41:54.973Z,76.02
2018-09-04T00:44:22.560Z,75.67
2018-09-04T00:46:50.231Z,76.28
2018-09-04T00:49:18.010Z,75.94
2018-09-04T00:51:45.621Z,76.07
2018-09-04T00:54:13.282Z,76.27
2018-09-04T00:56:40.928Z,76.05
2018-09-04T00:59:08.750Z,76.20
2018-09-04T01:01:36.487Z,75.99
2018-09-04T01:04:04.106Z,76.08
2018-09-04T01:06:31.871Z,76.02
2018-09-04T01:08:59.506Z,75.78
2018-09-04T01:11:27.174Z,75.81
2018-09-04T01:13:54.801Z,75.96
2018-09-04T01:16:22.508Z,75.36
2018-09-04T01:18:50.118Z,75.64
2018-09-04T01:21:17.763Z,75.88
2018-09-04T01:23:45.508Z,75.65
2018-09-04T01:26:13.427Z,75.56
2018-09-04T01:28:41.115Z,75.84
2018-09-04T01:31:08.778Z,75.64
2018-09-04T01:33:36.402Z,76.41
2018-09-04T01:36:04.157Z,76.95
2018-09-04T01:38:31.821Z,77.25
2018-09-04T01:40:59.447Z,77.98
2018-09-04T01:43:27.054Z,78.71
2018-09-04T01:45:54.708Z,79.68
2018-09-04T01:48:22.322Z,80.00
2018-09-04T01:50:49.924Z,80.30
2018-09-04T01:53:17.608Z,80.27
2018-09-04T01:55:45.241Z,80.50
2018-09-04T01:58:12.887Z,80.71
2018-09-04T02:00:40.567Z,80.89
2018-09-04T02:03:08.211Z,81.32
2018-09-04T02:05:35.844Z,80.86
2018-09-04T02:08:03.556Z,80.77
2018-09-04T02:10:31.195Z,80.37
2018-09-04T02:12:58.872Z,80.35
2018-09-04T02:15:26.734Z,80.39
2018-09-04T02:17:54.493Z,80.43
2018-09-04T02:20:22.155Z,80.55
2018-09-04T02:22:49.948Z,80.49
2018-09-04T02:25:17.556Z,81.66
2018-09-04T02:27:45.186Z,81.89
2018-09-04T02:30:12.848Z,81.81
2018-09-04T02:32:40.470Z,81.83
2018-09-04T02:35:08.135Z,81.36
2018-09-04T02:37:35.814Z,81.62
2018-09-04T02:40:03.544Z,81.61
2018-09-04T02:42:31.189Z,80.91
2018-09-04T02:44:58.820Z,81.45
2018-09-04T02:47:26.411Z,81.09
2018-09-04T02:49:54.016Z,81.24
2018-09-04T02:52:21.721Z,80.63
2018-09-04T02:54:49.326Z,80.50
2018-09-04T02:57:16.935Z,80.45
2018-09-04T02:59:44.595Z,80.71
2018-09-04T03:02:12.298Z,80.76
2018-09-04T03:04:39.964Z,80.81
2018-09-04T03:07:07.613Z,80.42
2018-09-04T03:09:35.240Z,81.11
2018-09-04T03:12:02.862Z,81.61
2018-09-04T03:14:30.546Z,81.31
2018-09-04T03:16:58.233Z,81.21
2018-09-04T03:19:25.871Z,81.93
2018-09-04T03:21:53.490Z,82.24
2018-09-04T03:24:21.124Z,81.99
2018-09-04T03:26:48.756Z,82.34
2018-09-04T03:29:16.398Z,82.33
2018-09-04T03:31:44.008Z,81.61
2018-09-04T03:34:11.627Z,81.95
2018-09-04T03:36:39.332Z,81.80
2018-09-04T03:39:08.314Z,81.50
2018-09-04T03:41:35.975Z,80.92
2018-09-04T03:44:03.685Z,81.32
2018-09-04T03:46:31.297Z,81.79
2018-09-04T03:48:58.943Z,81.85
2018-09-04T03:51:26.575Z,81.88
2018-09-04T03:53:54.171Z,82.37
2018-09-04T03:56:21.769Z,82.04
2018-09-04T03:58:49.441Z,82.54
2018-09-04T04:01:17.099Z,82.45
2018-09-04T04:03:44.696Z,83.20
2018-09-04T04:06:12.354Z,82.31
2018-09-04T04:08:39.978Z,82.52
2018-09-04T04:11:07.623Z,82.22
2018-09-04T04:13:35.288Z,82.82
2018-09-04T04:16:02.937Z,82.37
2018-09-04T04:18:30.555Z,81.58
2018-09-04T04:20:59.100Z,81.59
2018-09-04T04:23:27.752Z,81.59
2018-09-04T04:25:56.225Z,81.38
2018-09-04T04:28:24.325Z,81.81
2018-09-04T04:30:51.956Z,81.29
2018-09-04T04:33:19.911Z,80.70
2018-09-04T04:35:47.669Z,80.15
2018-09-04T04:38:15.305Z,79.75
2018-09-04T04:40:42.959Z,80.02
2018-09-04T04:43:10.816Z,80.03
2018-09-04T04:45:38.735Z,79.79
2018-09-04T04:48:06.422Z,79.53
2018-09-04T04:50:34.054Z,80.08
2018-09-04T04:53:01.711Z,79.76
2018-09-04T04:55:29.394Z,79.49
2018-09-04T04:57:57.157Z,79.27
2018-09-04T05:00:24.870Z,79.00
2018-09-04T05:02:52.488Z,79.37
2018-09-04T05:05:20.165Z,79.67
2018-09-04T05:07:47.845Z,79.45
2018-09-04T05:10:15.476Z,79.44
2018-09-04T05:12:43.218Z,79.47
2018-09-04T05:15:10.869Z,79.91
2018-09-04T05:17:38.482Z,79.89
2018-09-04T05:20:07.329Z,80.17
2018-09-04T05:22:35.043Z,80.35
2018-09-04T05:25:02.684Z,79.75
2018-09-04T05:27:30.333Z,79.94
2018-09-04T05:29:57.976Z,79.81
2018-09-04T05:32:42.865Z,79.64
2018-09-04T05:35:12.208Z,79.97
2018-09-04T05:37:40.498Z,79.55
2018-09-04T05:40:08.216Z,79.19
2018-09-04T05:42:39.181Z,79.25
2018-09-04T05:45:07.430Z,79.32
2018-09-04T05:47:36.895Z,79.20
2018-09-04T05:50:05.837Z,78.86
2018-09-04T05:52:33.484Z,79.32
2018-09-04T05:55:01.125Z,79.56
2018-09-04T05:57:28.840Z,79.72
2018-09-04T05:59:56.643Z,79.86
2018-09-04T06:02:24.368Z,80.25
2018-09-04T06:04:52.011Z,80.28
2018-09-04T06:07:19.669Z,80.04
2018-09-04T06:09:47.307Z,79.69
2018-09-04T06:12:15.991Z,79.54
2018-09-04T06:14:43.659Z,78.72
2018-09-04T06:17:11.328Z,78.48
2018-09-04T06:19:38.964Z,78.31
2018-09-04T06:22:06.644Z,78.86
2018-09-04T06:24:34.291Z,78.58
2018-09-04T06:27:02.013Z,78.24
2018-09-04T06:29:29.794Z,77.86
2018-09-04T06:31:57.479Z,77.65
2018-09-04T06:34:25.169Z,77.11
2018-09-04T06:36:52.986Z,76.72
2018-09-04T06:39:21.109Z,75.78
2018-09-04T06:41:48.842Z,75.98
2018-09-04T06:44:16.527Z,76.17
2018-09-04T06:46:44.169Z,76.14
2018-09-04T06:49:11.834Z,75.58
2018-09-04T06:51:39.556Z,75.84
2018-09-04T06:54:07.205Z,75.54
2018-09-04T06:56:34.907Z,75.35
2018-09-04T06:59:02.593Z,74.82
2018-09-04T07:01:30.267Z,75.20
2018-09-04T07:03:57.902Z,75.25
2018-09-04T07:06:25.605Z,75.02
2018-09-04T07:08:53.259Z,75.09
2018-09-04T07:11:20.885Z,73.56
2018-09-04T07:13:48.596Z,73.38
2018-09-04T07:16:16.308Z,72.88
2018-09-04T07:18:43.984Z,71.53
2018-09-04T07:21:11.618Z,71.44
2018-09-04T07:23:39.300Z,71.38
2018-09-04T07:26:06.982Z,71.69
2018-09-04T07:28:34.668Z,71.21
2018-09-04T07:31:02.395Z,71.01
2018-09-04T07:33:30.167Z,69.79
2018-09-04T07:35:57.955Z,69.86
2018-09-04T07:38:25.644Z,68.83
2018-09-04T07:40:53.285Z,66.80
2018-09-04T07:43:20.984Z,64.91
2018-09-04T07:45:48.618Z,63.70
2018-09-04T07:48:16.273Z,62.89
2018-09-04T07:50:43.965Z,64.01
2018-09-04T07:53:11.700Z,62.11
2018-09-04T07:55:39.350Z,62.02
2018-09-04T07:58:07.031Z,61.85
2018-09-04T08:00:34.727Z,59.21
2018-09-04T08:03:02.377Z,59.07
2018-09-04T08:05:30.081Z,59.73
2018-09-04T08:07:57.851Z,58.62
2018-09-04T08:10:25.547Z,58.93
2018-09-04T08:12:53.264Z,57.48
2018-09-04T08:15:21.050Z,57.89
2018-09-04T08:17:48.694Z,55.52
2018-09-04T08:20:16.421Z,56.28
2018-09-04T08:22:44.110Z,57.79
2018-09-04T08:25:11.740Z,56.77
2018-09-04T08:27:39.437Z,55.59
2018-09-04T08:30:07.216Z,56.02
2018-09-04T08:32:34.856Z,55.46
2018-09-04T08:35:02.555Z,54.11
2018-09-04T08:37:30.226Z,53.52
2018-09-04T08:39:57.899Z,52.13
2018-09-04T08:42:25.560Z,51.46
2018-09-04T08:44:53.260Z,50.18
2018-09-04T08:47:21.334Z,48.31
2018-09-04T08:49:49.102Z,48.73
2018-09-04T08:52:16.757Z,46.85
2018-09-04T08:54:44.495Z,44.67
2018-09-04T08:57:12.260Z,43.83
2018-09-04T08:59:39.920Z,42.43
2018-09-04T09:02:07.539Z,42.19
2018-09-04T09:04:35.290Z,41.54
2018-09-04T09:07:02.946Z,42.80
2018-09-04T09:09:30.580Z,42.75
2018-09-04T09:11:58.244Z,43.87
2018-09-04T09:14:25.919Z,40.68
2018-09-04T09:16:53.558Z,41.69
2018-09-04T09:19:21.265Z,43.77
2018-09-04T09:21:48.974Z,45.10
2018-09-04T09:24:16.607Z,46.34
2018-09-04T09:26:44.298Z,45.37
2018-09-04T09:29:11.971Z,44.41
2018-09-04T09:31:39.662Z,41.95
2018-09-04T09:34:07.342Z,41.74
2018-09-04T09:36:35.040Z,41.37
2018-09-04T09:39:03.011Z,42.03
2018-09-04T09:41:30.731Z,41.42
2018-09-04T09:43:58.498Z,41.44
2018-09-04T09:46:26.136Z,40.35
2018-09-04T09:48:53.813Z,38.87
2018-09-04T09:51:21.468Z,38.64
2018-09-04T09:53:49.112Z,37.96
2018-09-04T09:56:16.855Z,38.45
2018-09-04T09:58:44.518Z,38.81
2018-09-04T10:01:17.708Z,37.32
2018-09-04T10:03:50.918Z,37.71
2018-09-04T10:06:19.496Z,38.89
2018-09-04T10:08:47.196Z,39.02
2018-09-04T10:11:14.857Z,39.28
2018-09-04T10:13:42.586Z,37.74
2018-09-04T10:16:10.254Z,39.64
2018-09-04T10:18:37.928Z,39.13
2018-09-04T10:21:05.819Z,38.39
2018-09-04T10:23:33.628Z,36.50
2018-09-04T10:26:01.377Z,35.19
2018-09-04T10:28:29.136Z,34.78
2018-09-04T10:30:56.780Z,33.27
2018-09-04T10:33:24.409Z,33.92
2018-09-04T10:35:52.113Z,33.89
2018-09-04T10:38:23.519Z,32.96
2018-09-04T10:40:52.916Z,32.22
2018-09-04T10:43:20.659Z,31.61
2018-09-04T10:45:53.940Z,30.44
2018-09-04T10:48:25.547Z,29.76
2018-09-04T10:50:53.441Z,28.12
2018-09-04T10:53:21.099Z,29.30
2018-09-04T10:55:48.875Z,28.54
2018-09-04T10:58:16.512Z,29.50
2018-09-04T11:00:44.166Z,29.73
2018-09-04T11:03:11.875Z,30.02
2018-09-04T11:05:39.649Z,30.35
2018-09-04T11:08:07.370Z,29.02
2018-09-04T11:10:35.100Z,29.70
2018-09-04T11:13:02.834Z,30.19
2018-09-04T11:15:30.516Z,28.71
2018-09-04T11:17:58.285Z,27.42
2018-09-04T11:20:26.035Z,28.25
2018-09-04T11:22:53.863Z,32.01
2018-09-04T11:25:21.589Z,32.85
2018-09-04T11:27:49.337Z,33.21
2018-09-04T11:30:17.025Z,30.83
2018-09-04T11:32:44.672Z,29.01
2018-09-04T11:35:12.489Z,27.63
2018-09-04T11:37:40.256Z,25.47
2018-09-04T11:40:08.759Z,24.73
2018-09-04T11:42:36.675Z,23.18
2018-09-04T11:45:05.230Z,23.80
2018-09-04T11:47:32.929Z,22.02
2018-09-04T11:50:00.632Z,22.57
2018-09-04T11:52:28.431Z,23.10
2018-09-04T11:54:56.043Z,25.09
2018-09-04T11:57:23.778Z,25.93
2018-09-04T11:59:51.556Z,23.79
2018-09-04T12:02:22.823Z,22.32
2018-09-04T12:04:50.492Z,22.41
2018-09-04T12:07:18.201Z,21.40
2018-09-04T12:09:45.855Z,21.71
2018-09-04T12:12:19.177Z,21.06
2018-09-04T12:14:46.802Z,20.95
2018-09-04T12:17:14.556Z,20.56
2018-09-04T12:20:52.716Z,19.90
2018-09-04T12:23:20.315Z,19.63
2018-09-04T12:25:49.468Z,19.92
2018-09-04T12:28:17.144Z,19.79
2018-09-04T12:30:44.828Z,20.04
2018-09-04T12:33:12.461Z,19.58
2018-09-04T12:35:40.137Z,18.58
2018-09-04T12:38:11.381Z,19.40
2018-09-04T12:40:39.126Z,22.26
2018-09-04T12:43:06.782Z,24.22
2018-09-04T12:45:39.964Z,26.45
2018-09-04T12:48:07.749Z,26.83
2018-09-04T12:50:35.924Z,24.84
2018-09-04T12:53:03.598Z,23.87
2018-09-04T12:55:31.323Z,25.78
2018-09-04T12:57:58.968Z,28.07
2018-09-04T13:00:26.591Z,29.40
2018-09-04T13:02:54.262Z,30.39
2018-09-04T13:05:21.871Z,31.32
2018-09-04T13:07:49.491Z,32.27
2018-09-04T13:10:17.132Z,27.73
2018-09-04T13:12:44.741Z,25.54
2018-09-04T13:15:12.881Z,22.91
2018-09-04T13:17:40.570Z,22.89
2018-09-04T13:20:08.199Z,20.70
2018-09-04T13:22:35.813Z,20.48
2018-09-04T13:25:03.558Z,20.52
2018-09-04T13:27:31.297Z,20.92
2018-09-04T13:29:58.960Z,19.65
2018-09-04T13:32:26.618Z,19.09
2018-09-04T13:34:54.233Z,18.58
2018-09-04T13:37:22.912Z,17.87
2018-09-04T13:39:55.525Z,17.86
2018-09-04T13:42:23.148Z,18.00
2018-09-04T13:44:53.683Z,17.28
2018-09-04T13:47:22.169Z,16.61
2018-09-04T13:49:49.815Z,16.42
2018-09-04T13:52:17.441Z,16.80
2018-09-04T13:54:45.091Z,16.67
2018-09-04T13:57:12.710Z,16.83
2018-09-04T13:59:40.329Z,17.25
2018-09-04T14:02:08.049Z,18.20
2018-09-04T14:04:35.646Z,16.78
2018-09-04T14:07:03.324Z,17.13
2018-09-04T14:09:31.011Z,17.71
2018-09-04T14:11:58.693Z,17.31
2018-09-04T14:14:26.317Z,16.50
2018-09-04T14:16:54.094Z,16.96
2018-09-04T14:19:21.647Z,16.45
2018-09-04T14:21:49.613Z,16.76
2018-09-04T14:24:17.276Z,19.08
2018-09-04T14:26:44.878Z,18.39
2018-09-04T14:29:53.155Z,17.38
2018-09-04T14:31:40.180Z,18.06
2018-09-04T14:34:07.818Z,19.64
2018-09-04T14:36:36.088Z,19.88
2018-09-04T14:39:04.280Z,18.51
2018-09-04T14:41:32.038Z,18.00
2018-09-04T14:43:59.656Z,18.83
2018-09-04T14:46:27.329Z,18.32
2018-09-04T14:48:55.029Z,17.61
2018-09-04T14:51:22.652Z,17.53
2018-09-04T14:53:50.385Z,17.44
2018-09-04T14:56:18.021Z,18.73
2018-09-04T14:58:45.640Z,18.73
2018-09-04T15:01:13.282Z,18.09
2018-09-04T15:03:40.904Z,18.72
2018-09-04T15:06:08.544Z,18.48
2018-09-04T15:08:36.218Z,19.49
2018-09-04T15:11:03.845Z,19.88
2018-09-04T15:13:31.490Z,19.89
2018-09-04T15:15:59.138Z,19.96
2018-09-04T15:18:26.773Z,18.57
2018-09-04T15:20:54.424Z,18.98
2018-09-04T15:23:22.076Z,19.70
2018-09-04T15:25:49.688Z,20.04
2018-09-04T15:28:17.310Z,20.34
2018-09-04T15:30:44.981Z,20.52
2018-09-04T15:33:12.586Z,20.42
2018-09-04T15:35:40.199Z,21.21
2018-09-04T15:38:07.848Z,21.38
2018-09-04T15:40:35.473Z,21.87
2018-09-04T15:43:03.105Z,23.36
2018-09-04T15:45:30.921Z,23.29
2018-09-04T15:47:58.532Z,23.55
2018-09-04T15:50:26.148Z,23.18
2018-09-04T15:52:53.793Z,23.97
2018-09-04T15:55:21.372Z,25.20
2018-09-04T15:57:49.021Z,26.34
2018-09-04T16:00:16.740Z,26.54
2018-09-04T16:02:44.358Z,26.88
2018-09-04T16:05:11.976Z,27.80
2018-09-04T16:07:39.637Z,29.47
2018-09-04T16:10:07.443Z,29.97
2018-09-04T16:12:34.959Z,30.97
2018-09-04T16:15:02.647Z,32.11
2018-09-04T16:17:30.400Z,32.94
2018-09-04T16:19:58.016Z,33.03
2018-09-04T16:22:25.796Z,33.74
2018-09-04T16:24:53.465Z,34.51
2018-09-04T16:27:21.107Z,34.78
2018-09-04T16:29:48.817Z,35.77
2018-09-04T16:32:16.524Z,36.04
2018-09-04T16:34:44.192Z,36.23
2018-09-04T16:37:11.832Z,36.75
2018-09-04T16:39:39.469Z,37.60
2018-09-04T16:42:07.092Z,38.18
2018-09-04T16:44:34.885Z,38.08
2018-09-04T16:47:02.505Z,38.46
2018-09-04T16:49:30.122Z,39.56
2018-09-04T16:51:59.068Z,39.45
2018-09-04T16:54:27.418Z,39.99
2018-09-04T16:56:55.063Z,40.07
2018-09-04T16:59:22.812Z,40.86
2018-09-04T17:01:50.440Z,41.14
2018-09-04T17:04:18.064Z,41.40
2018-09-04T17:06:46.167Z,42.14
2018-09-04T17:09:13.781Z,41.96
2018-09-04T17:11:41.417Z,42.62
2018-09-04T17:14:09.100Z,42.84
2018-09-04T17:16:36.721Z,43.22
2018-09-04T17:19:04.548Z,43.34
2018-09-04T17:21:32.216Z,44.11
2018-09-04T17:23:59.835Z,44.15
2018-09-04T17:26:27.467Z,43.87
2018-09-04T17:28:55.142Z,44.65
2018-09-04T17:31:22.812Z,45.21
2018-09-04T17:33:50.556Z,44.67
2018-09-04T17:36:18.229Z,45.67
2018-09-04T17:38:45.970Z,45.95
2018-09-04T17:41:13.621Z,46.62
2018-09-04T17:43:41.305Z,46.93
2018-09-04T17:46:08.921Z,46.95
2018-09-04T17:48:36.560Z,47.06
2018-09-04T17:51:04.368Z,47.77
2018-09-04T17:53:32.289Z,46.90
2018-09-04T17:55:59.900Z,47.83
2018-09-04T17:58:27.602Z,48.27
2018-09-04T18:00:55.274Z,48.25
2018-09-04T18:03:23.029Z,47.74
2018-09-04T18:05:50.732Z,48.46
2018-09-04T18:08:18.329Z,49.23
2018-09-04T18:10:46.006Z,49.23
2018-09-04T18:13:13.668Z,49.95
2018-09-04T18:15:41.309Z,49.92
2018-09-04T18:18:08.913Z,50.83
2018-09-04T18:20:36.577Z,51.02
2018-09-04T18:23:04.248Z,50.86
2018-09-04T18:25:31.875Z,51.38
2018-09-04T18:27:59.568Z,51.13
2018-09-04T18:30:28.851Z,51.22
2018-09-04T18:32:56.460Z,51.10
2018-09-04T18:35:24.117Z,51.56
2018-09-04T18:37:51.736Z,52.00
2018-09-04T18:40:19.383Z,52.11
2018-09-04T18:42:47.040Z,53.11
2018-09-04T18:45:50.328Z,53.31
2018-09-04T18:48:18.372Z,52.70
2018-09-04T18:50:46.026Z,53.08
2018-09-04T18:53:13.669Z,52.87
2018-09-04T18:55:41.344Z,52.44
2018-09-04T18:58:09.671Z,52.94
2018-09-04T19:00:37.373Z,53.43
2018-09-04T19:03:05.425Z,53.41
2018-09-04T19:05:33.252Z,53.79
2018-09-04T19:08:00.998Z,53.77
2018-09-04T19:10:28.858Z,53.55
2018-09-04T19:12:56.512Z,53.92
2018-09-04T19:15:24.160Z,54.25
2018-09-04T19:17:51.833Z,54.70
2018-09-04T19:20:19.567Z,54.78
2018-09-04T19:22:47.149Z,54.70
2018-09-04T19:25:14.950Z,54.27
2018-09-04T19:27:42.582Z,53.94
2018-09-04T19:30:10.233Z,54.23
2018-09-04T19:32:37.898Z,54.24
2018-09-04T19:35:05.511Z,54.21
2018-09-04T19:37:33.152Z,54.02
2018-09-04T19:40:00.861Z,54.25
2018-09-04T19:42:28.487Z,54.39
2018-09-04T19:44:56.143Z,53.98
2018-09-04T19:47:23.819Z,54.38
2018-09-04T19:49:51.566Z,55.17
2018-09-04T19:52:19.171Z,55.83
2018-09-04T19:54:46.954Z,55.54
2018-09-04T19:57:14.581Z,55.62
2018-09-04T19:59:42.209Z,56.01
2018-09-04T20:02:09.928Z,55.52
2018-09-04T20:04:37.591Z,56.37
2018-09-04T20:07:05.691Z,56.57
2018-09-04T20:09:33.362Z,57.07
2018-09-04T20:12:00.990Z,57.34
2018-09-04T20:14:28.612Z,57.20
2018-09-04T20:16:56.290Z,57.35
2018-09-04T20:19:23.947Z,56.99
2018-09-04T20:21:51.628Z,57.71
2018-09-04T20:24:19.330Z,57.83
2018-09-04T20:26:46.981Z,58.05
2018-09-04T20:29:14.617Z,57.67
2018-09-04T20:31:42.332Z,58.18
2018-09-04T20:34:09.966Z,58.87
2018-09-04T20:36:37.590Z,58.39
2018-09-04T20:39:06.030Z,58.71
2018-09-04T20:41:33.753Z,58.87
2018-09-04T20:44:01.501Z,58.95
2018-09-04T20:46:29.293Z,58.62
2018-09-04T20:48:57.023Z,59.22
2018-09-04T20:51:24.700Z,58.91
2018-09-04T20:53:52.436Z,59.32
2018-09-04T20:56:20.048Z,59.52
2018-09-04T20:58:58.774Z,59.00
2018-09-04T21:01:37.775Z,59.37
2018-09-04T21:04:16.712Z,59.38
2018-09-04T21:06:44.672Z,59.11
2018-09-04T21:09:28.172Z,59.35
2018-09-04T21:11:55.835Z,59.19
2018-09-04T21:14:23.672Z,60.10
2018-09-04T21:16:52.065Z,60.08
2018-09-04T21:19:19.659Z,60.20
2018-09-04T21:21:47.292Z,60.41
2018-09-04T21:24:15.127Z,60.17
2018-09-04T21:26:42.732Z,60.33
2018-09-04T21:29:10.451Z,60.89
2018-09-04T21:31:38.154Z,60.64
2018-09-04T21:34:05.879Z,61.12
2018-09-04T21:36:33.525Z,61.05
2018-09-04T21:39:01.269Z,60.96
2018-09-04T21:41:28.935Z,60.53
2018-09-04T21:43:56.663Z,61.03
2018-09-04T21:46:24.319Z,60.73
2018-09-04T21:48:52.027Z,60.47
2018-09-04T21:51:19.679Z,60.45
2018-09-04T21:53:47.333Z,60.51
2018-09-04T21:56:14.986Z,60.82
2018-09-04T21:58:42.631Z,61.13
2018-09-04T22:01:10.345Z,60.71
2018-09-04T22:03:38.027Z,60.90
2018-09-04T22:06:05.793Z,60.50
2018-09-04T22:08:33.537Z,60.82
2018-09-04T22:11:01.187Z,60.78
2018-09-04T22:13:28.828Z,61.29
2018-09-04T22:15:56.544Z,61.46
2018-09-04T22:18:24.263Z,61.63
2018-09-04T22:20:51.905Z,61.90
2018-09-04T22:23:19.563Z,61.59
2018-09-04T22:25:47.182Z,61.45
2018-09-04T22:28:14.864Z,61.46
2018-09-04T22:30:42.547Z,61.92
2018-09-04T22:33:10.201Z,62.23
2018-09-04T22:35:37.846Z,62.14
2018-09-04T22:38:05.516Z,62.08
2018-09-04T22:40:33.143Z,62.78
2018-09-04T22:43:00.767Z,62.50
2018-09-04T22:45:28.484Z,62.57
2018-09-04T22:47:56.899Z,62.10
2018-09-04T22:50:30.153Z,62.34
2018-09-04T22:52:57.743Z,62.52
2018-09-04T22:55:25.383Z,62.07
2018-09-04T22:57:53.046Z,62.77
2018-09-04T23:00:20.741Z,62.93
2018-09-04T23:02:48.410Z,62.61
2018-09-04T23:05:16.073Z,63.19
2018-09-04T23:07:43.682Z,63.57
2018-09-04T23:10:11.327Z,63.27
2018-09-04T23:12:39.026Z,63.05
2018-09-04T23:15:06.754Z,62.86
2018-09-04T23:17:34.403Z,62.92
2018-09-04T23:20:41.100Z,62.84
2018-09-04T23:23:08.717Z,63.18
2018-09-04T23:25:36.444Z,63.31
2018-09-04T23:28:04.110Z,63.18
2018-09-04T23:30:31.791Z,62.89
2018-09-04T23:32:59.440Z,63.12
2018-09-04T23:35:27.134Z,63.17
2018-09-04T23:37:54.753Z,63.42
2018-09-04T23:40:22.433Z,63.14
2018-09-04T23:42:50.076Z,63.40
2018-09-04T23:45:17.718Z,63.51
2018-09-04T23:47:45.495Z,63.39
2018-09-04T23:50:13.166Z,63.67
2018-09-04T23:52:41.099Z,63.62
2018-09-04T23:55:08.721Z,63.42
2018-09-04T23:57:36.571Z,63.91
